SU8PY HECA-HEOC
Flight info
| Callsign | SU8PY |
|---|---|
| Flight time | 0h 18m |
| Altitude | 10000 |
| Route | CVO |
| Aircraft | TBM8/L-SDFGRWY/S |
Departure
| Time | 2026-04-26 16:56 |
|---|---|
| Airport | Cairo International Airport (HECA) |
Arrival
| Time | 2026-04-26 17:14 |
|---|---|
| Airport | October Airport (HEOC) |
| Time | Latitude | Longitude | Altitude | Speed | Heading |
|---|---|---|---|---|---|
| 2026-04-26 16:47 | 30.12825 | 31.40654 | 369 ft | 0 kts | 252° |
| 2026-04-26 16:51 | 30.12821 | 31.40642 | 369 ft | 3 kts | 252° |
| 2026-04-26 16:52 | 30.12819 | 31.40605 | 369 ft | 4 kts | 295° |
| 2026-04-26 16:52 | 30.12830 | 31.40588 | 369 ft | 5 kts | 321° |
| 2026-04-26 16:52 | 30.12894 | 31.40569 | 369 ft | 8 kts | 17° |
| 2026-04-26 16:52 | 30.12922 | 31.40628 | 369 ft | 9 kts | 71° |
| 2026-04-26 16:53 | 30.12946 | 31.40696 | 369 ft | 9 kts | 39° |
| 2026-04-26 16:53 | 30.13002 | 31.40690 | 369 ft | 8 kts | 341° |
| 2026-04-26 16:53 | 30.13057 | 31.40671 | 369 ft | 9 kts | 345° |
| 2026-04-26 16:53 | 30.13128 | 31.40646 | 369 ft | 13 kts | 345° |
| 2026-04-26 16:54 | 30.13216 | 31.40618 | 369 ft | 12 kts | 345° |
| 2026-04-26 16:54 | 30.13292 | 31.40593 | 369 ft | 11 kts | 344° |
| 2026-04-26 16:54 | 30.13367 | 31.40567 | 369 ft | 12 kts | 339° |
| 2026-04-26 16:54 | 30.13462 | 31.40532 | 369 ft | 16 kts | 343° |
| 2026-04-26 16:55 | 30.13578 | 31.40490 | 369 ft | 17 kts | 343° |
| 2026-04-26 16:55 | 30.13677 | 31.40449 | 369 ft | 15 kts | 333° |
| 2026-04-26 16:55 | 30.13700 | 31.40349 | 367 ft | 17 kts | 231° |
| 2026-04-26 16:55 | 30.13542 | 31.40137 | 365 ft | 59 kts | 229° |
| 2026-04-26 16:56 | 30.12690 | 31.38975 | 590 ft | 110 kts | 233° |
| 2026-04-26 16:56 | 30.12223 | 31.38278 | 912 ft | 109 kts | 234° |
| 2026-04-26 16:56 | 30.11745 | 31.37618 | 1220 ft | 113 kts | 227° |
| 2026-04-26 16:57 | 30.11231 | 31.36898 | 1518 ft | 115 kts | 229° |
| 2026-04-26 16:57 | 30.10727 | 31.36186 | 1863 ft | 114 kts | 230° |
| 2026-04-26 16:57 | 30.09661 | 31.34680 | 2494 ft | 127 kts | 229° |
| 2026-04-26 16:58 | 30.09113 | 31.33833 | 2857 ft | 135 kts | 234° |
| 2026-04-26 16:58 | 30.08745 | 31.33253 | 3144 ft | 137 kts | 231° |
| 2026-04-26 16:58 | 30.07260 | 31.31196 | 4072 ft | 145 kts | 229° |
| 2026-04-26 16:59 | 30.06600 | 31.30311 | 4519 ft | 145 kts | 228° |
| 2026-04-26 16:59 | 30.05266 | 31.28580 | 5410 ft | 145 kts | 229° |
| 2026-04-26 17:00 | 30.03907 | 31.26832 | 6278 ft | 146 kts | 230° |
| 2026-04-26 17:00 | 30.02664 | 31.24751 | 6312 ft | 164 kts | 246° |
| 2026-04-26 17:00 | 30.02176 | 31.23532 | 6246 ft | 169 kts | 245° |
| 2026-04-26 17:01 | 30.01621 | 31.22311 | 6154 ft | 173 kts | 242° |
| 2026-04-26 17:01 | 30.01054 | 31.21093 | 6062 ft | 174 kts | 243° |
| 2026-04-26 17:01 | 30.00496 | 31.19881 | 6028 ft | 169 kts | 242° |
| 2026-04-26 17:01 | 29.99932 | 31.18707 | 6010 ft | 165 kts | 241° |
| 2026-04-26 17:02 | 29.99383 | 31.17552 | 5996 ft | 163 kts | 243° |
| 2026-04-26 17:02 | 29.98861 | 31.16404 | 6006 ft | 161 kts | 243° |
| 2026-04-26 17:02 | 29.98337 | 31.15269 | 6007 ft | 160 kts | 243° |
| 2026-04-26 17:02 | 29.97822 | 31.14134 | 6007 ft | 159 kts | 243° |
| 2026-04-26 17:03 | 29.97308 | 31.13012 | 5998 ft | 158 kts | 242° |
| 2026-04-26 17:03 | 29.96792 | 31.11890 | 6004 ft | 158 kts | 242° |
| 2026-04-26 17:03 | 29.96284 | 31.10789 | 6003 ft | 158 kts | 243° |
| 2026-04-26 17:03 | 29.95769 | 31.09673 | 5999 ft | 158 kts | 242° |
| 2026-04-26 17:04 | 29.95252 | 31.08556 | 6004 ft | 158 kts | 242° |
| 2026-04-26 17:04 | 29.94739 | 31.07443 | 6004 ft | 157 kts | 243° |
| 2026-04-26 17:04 | 29.94226 | 31.06334 | 6001 ft | 157 kts | 242° |
| 2026-04-26 17:04 | 29.93713 | 31.05225 | 6009 ft | 157 kts | 242° |
| 2026-04-26 17:05 | 29.93202 | 31.04114 | 6008 ft | 157 kts | 243° |
| 2026-04-26 17:05 | 29.92692 | 31.03003 | 6006 ft | 157 kts | 242° |
| 2026-04-26 17:05 | 29.92179 | 31.01899 | 6004 ft | 156 kts | 242° |
| 2026-04-26 17:05 | 29.91668 | 31.00799 | 6001 ft | 156 kts | 242° |
| 2026-04-26 17:06 | 29.91156 | 30.99695 | 6004 ft | 156 kts | 242° |
| 2026-04-26 17:06 | 29.90648 | 30.98596 | 6008 ft | 156 kts | 242° |
| 2026-04-26 17:06 | 29.90139 | 30.97496 | 6005 ft | 156 kts | 242° |
| 2026-04-26 17:06 | 29.89629 | 30.96395 | 6003 ft | 155 kts | 242° |
| 2026-04-26 17:07 | 29.89120 | 30.95294 | 6008 ft | 156 kts | 242° |
| 2026-04-26 17:07 | 29.88611 | 30.94192 | 6005 ft | 156 kts | 242° |
| 2026-04-26 17:07 | 29.88090 | 30.93055 | 5692 ft | 161 kts | 244° |
| 2026-04-26 17:07 | 29.87599 | 30.91946 | 5251 ft | 151 kts | 243° |
| 2026-04-26 17:08 | 29.87111 | 30.90904 | 4808 ft | 146 kts | 241° |
| 2026-04-26 17:08 | 29.86635 | 30.89892 | 4366 ft | 144 kts | 241° |
| 2026-04-26 17:08 | 29.86163 | 30.88880 | 3925 ft | 143 kts | 241° |
| 2026-04-26 17:08 | 29.85697 | 30.87875 | 3491 ft | 142 kts | 242° |
| 2026-04-26 17:09 | 29.85232 | 30.86872 | 3053 ft | 141 kts | 242° |
| 2026-04-26 17:09 | 29.85082 | 30.86549 | 2911 ft | 141 kts | 242° |
| 2026-04-26 17:09 | 29.84321 | 30.84921 | 2508 ft | 135 kts | 238° |
| 2026-04-26 17:09 | 29.84006 | 30.84300 | 2501 ft | 136 kts | 239° |
| 2026-04-26 17:10 | 29.83369 | 30.83052 | 2526 ft | 136 kts | 238° |
| 2026-04-26 17:10 | 29.82879 | 30.82115 | 2499 ft | 138 kts | 239° |
| 2026-04-26 17:10 | 29.82422 | 30.81148 | 2507 ft | 137 kts | 242° |
| 2026-04-26 17:10 | 29.82063 | 30.80561 | 2532 ft | 133 kts | 225° |
| 2026-04-26 17:11 | 29.81238 | 30.80094 | 2543 ft | 135 kts | 192° |
| 2026-04-26 17:11 | 29.80287 | 30.80030 | 2522 ft | 139 kts | 184° |
| 2026-04-26 17:11 | 29.79316 | 30.80011 | 2505 ft | 140 kts | 184° |
| 2026-04-26 17:11 | 29.78336 | 30.79993 | 2423 ft | 143 kts | 184° |
| 2026-04-26 17:12 | 29.76411 | 30.79987 | 2079 ft | 136 kts | 182° |
| 2026-04-26 17:12 | 29.75575 | 30.80450 | 1883 ft | 144 kts | 128° |
| 2026-04-26 17:13 | 29.76323 | 30.82189 | 1465 ft | 139 kts | 360° |
| 2026-04-26 17:13 | 29.77225 | 30.82045 | 1365 ft | 125 kts | 345° |
| 2026-04-26 17:13 | 29.78729 | 30.81899 | 1174 ft | 105 kts | 358° |
| 2026-04-26 17:14 | 29.79461 | 30.81993 | 1030 ft | 106 kts | 2° |
| 2026-04-26 17:14 | 29.80832 | 30.82251 | 797 ft | 79 kts | 9° |
| 2026-04-26 17:14 | 29.81171 | 30.82332 | 783 ft | 15 kts | 44° |
| 2026-04-26 17:15 | 29.81163 | 30.82468 | 783 ft | 7 kts | 98° |
| 2026-04-26 17:15 | 29.81154 | 30.82525 | 783 ft | 7 kts | 101° |
| 2026-04-26 17:15 | 29.81145 | 30.82586 | 783 ft | 8 kts | 97° |
| 2026-04-26 17:16 | 29.81166 | 30.82641 | 782 ft | 9 kts | 16° |
| 2026-04-26 17:16 | 29.81222 | 30.82656 | 780 ft | 6 kts | 10° |
| 2026-04-26 17:16 | 29.81244 | 30.82664 | 779 ft | 3 kts | 71° |
| 2026-04-26 17:16 | 29.81240 | 30.82695 | 778 ft | 4 kts | 100° |
| 2026-04-26 17:17 | 29.81240 | 30.82696 | 779 ft | 0 kts | 100° |